Time;durP1;ratioP1;P1;durP2;ratioP2;P2;SDS_P1;SDS_P2;PMS_P1;PMS_P2;Temp;Humidity;BMP_temperature;BMP_pressure;BME280_temperature;BME280_humidity;BME280_pressure;Samples;Min_cycle;Max_cycle;Signal;HPM_P1;HPM_P2
2023/12/02 00:01:57;;;;;;;25.50;13.20;;;3.20;64.60;;;;;;5073730;28;20021;-67
2023/12/02 00:04:23;;;;;;;27.00;14.33;;;3.20;64.70;;;;;;5072170;28;20032;-67
2023/12/02 00:06:49;;;;;;;27.97;13.93;;;3.20;64.60;;;;;;5055578;28;20093;-67
2023/12/02 00:09:14;;;;;;;29.43;14.33;;;3.20;64.50;;;;;;5068044;28;20040;-67
2023/12/02 00:11:40;;;;;;;28.63;14.43;;;3.20;64.50;;;;;;5061164;28;20154;-67
2023/12/02 00:14:06;;;;;;;28.27;14.67;;;3.20;64.50;;;;;;5043852;28;20021;-67
2023/12/02 00:16:32;;;;;;;27.57;14.67;;;3.20;64.50;;;;;;5090792;28;20044;-67
2023/12/02 00:18:58;;;;;;;26.73;13.97;;;3.20;65.20;;;;;;5096837;28;20039;-67
2023/12/02 00:21:23;;;;;;;25.40;12.87;;;3.20;64.60;;;;;;5097700;28;20016;-67
2023/12/02 00:23:49;;;;;;;29.30;15.53;;;3.20;64.60;;;;;;5110960;28;20066;-67
2023/12/02 00:26:15;;;;;;;27.13;13.80;;;3.20;64.60;;;;;;5090566;28;20024;-67
2023/12/02 00:28:48;;;;;;;26.97;14.63;;;3.20;64.70;;;;;;5075553;28;20036;-67
2023/12/02 00:31:13;;;;;;;27.83;14.20;;;3.20;64.60;;;;;;5113317;28;20034;-67
2023/12/02 00:33:39;;;;;;;27.03;14.87;;;3.20;64.60;;;;;;5114543;28;20028;-67
2023/12/02 00:36:05;;;;;;;26.33;13.57;;;3.20;64.60;;;;;;5086816;28;20081;-67
2023/12/02 00:38:31;;;;;;;27.77;14.63;;;3.20;64.50;;;;;;5084486;28;20073;-67
2023/12/02 00:40:57;;;;;;;24.60;12.93;;;3.20;64.60;;;;;;5114410;28;20020;-67
2023/12/02 00:43:23;;;;;;;24.63;12.73;;;3.20;64.70;;;;;;5101130;28;20034;-67
2023/12/02 00:45:49;;;;;;;23.40;13.07;;;3.20;64.70;;;;;;5101137;28;20050;-67
2023/12/02 00:48:15;;;;;;;25.33;13.63;;;3.20;64.60;;;;;;5101695;28;20038;-67
2023/12/02 00:50:40;;;;;;;24.87;12.70;;;3.20;64.60;;;;;;5078571;28;20070;-67
2023/12/02 00:53:06;;;;;;;24.97;13.57;;;3.20;64.50;;;;;;5073040;28;20031;-67
2023/12/02 00:55:32;;;;;;;25.07;12.13;;;3.10;64.50;;;;;;5096820;28;20032;-67
2023/12/02 00:57:57;;;;;;;26.80;14.17;;;3.10;64.50;;;;;;5111632;28;20039;-67
2023/12/02 01:00:23;;;;;;;25.93;13.37;;;3.10;64.60;;;;;;5106294;28;20023;-67
2023/12/02 01:02:49;;;;;;;24.90;11.80;;;3.10;64.60;;;;;;5085238;28;20028;-67
2023/12/02 01:05:15;;;;;;;26.37;13.13;;;3.10;64.50;;;;;;5094999;28;20032;-67
2023/12/02 01:07:40;;;;;;;23.63;12.77;;;3.10;64.60;;;;;;5092995;28;20031;-67
2023/12/02 01:10:07;;;;;;;29.97;14.60;;;3.10;64.50;;;;;;5106697;28;20060;-67
2023/12/02 01:12:33;;;;;;;24.57;12.80;;;3.10;64.50;;;;;;5088858;28;20041;-67
2023/12/02 01:14:58;;;;;;;24.00;12.47;;;3.10;64.50;;;;;;5095652;28;20024;-67
2023/12/02 01:17:25;;;;;;;26.40;13.17;;;3.10;64.50;;;;;;5106253;28;20130;-67
2023/12/02 01:19:51;;;;;;;23.93;12.07;;;3.10;64.50;;;;;;5083101;28;20106;-67
2023/12/02 01:22:17;;;;;;;23.60;12.77;;;3.10;64.50;;;;;;5116496;28;20034;-67
2023/12/02 01:24:42;;;;;;;21.90;11.57;;;3.10;64.50;;;;;;5104062;28;20035;-67
2023/12/02 01:27:08;;;;;;;23.93;12.73;;;3.10;64.50;;;;;;5106670;28;20016;-67
2023/12/02 01:29:34;;;;;;;25.60;12.70;;;3.10;64.40;;;;;;5115668;28;20050;-67
2023/12/02 01:31:59;;;;;;;24.03;12.03;;;3.10;64.40;;;;;;5076776;28;20464;-67
2023/12/02 01:34:25;;;;;;;25.00;12.60;;;3.10;64.30;;;;;;5098691;28;20036;-67
2023/12/02 01:36:51;;;;;;;24.37;13.27;;;3.10;64.40;;;;;;5089972;28;20027;-67
2023/12/02 01:39:17;;;;;;;22.33;11.87;;;3.00;64.40;;;;;;5062446;28;20038;-67
2023/12/02 01:41:42;;;;;;;24.90;12.93;;;3.00;64.40;;;;;;5105072;28;20055;-67
2023/12/02 01:44:11;;;;;;;23.40;11.90;;;3.00;64.40;;;;;;5084104;28;20039;-67
2023/12/02 01:46:37;;;;;;;25.23;12.80;;;3.00;64.50;;;;;;5100990;28;20023;-67
2023/12/02 01:49:03;;;;;;;26.37;13.00;;;3.10;64.60;;;;;;5099670;28;20031;-67
2023/12/02 01:51:29;;;;;;;23.10;12.90;;;3.00;64.50;;;;;;5097160;28;20341;-67
2023/12/02 01:53:55;;;;;;;24.40;12.30;;;3.00;64.50;;;;;;5116059;28;20024;-67
2023/12/02 01:56:21;;;;;;;24.10;11.90;;;3.00;64.50;;;;;;5088007;28;20045;-67
2023/12/02 01:58:47;;;;;;;22.77;11.63;;;3.00;64.50;;;;;;5088100;28;20023;-67
2023/12/02 02:01:13;;;;;;;24.30;14.03;;;3.00;64.50;;;;;;5091047;28;20460;-67
2023/12/02 02:03:39;;;;;;;24.37;12.10;;;3.00;64.60;;;;;;5070394;28;20028;-67
2023/12/02 02:06:14;;;;;;;25.43;13.47;;;3.00;64.60;;;;;;5091433;28;20089;-66
2023/12/02 02:08:40;;;;;;;23.73;12.50;;;3.00;64.50;;;;;;5095336;28;20161;-67
2023/12/02 02:11:06;;;;;;;22.47;12.33;;;3.00;64.60;;;;;;5091524;28;20385;-66
2023/12/02 02:13:32;;;;;;;23.30;11.90;;;3.00;64.60;;;;;;5100692;28;20035;-67
2023/12/02 02:15:58;;;;;;;22.07;12.33;;;3.00;64.60;;;;;;5082772;28;20119;-67
2023/12/02 02:18:24;;;;;;;24.47;12.20;;;3.00;64.60;;;;;;5100274;28;20178;-66
2023/12/02 02:20:51;;;;;;;25.27;13.47;;;3.00;64.60;;;;;;5109560;28;20081;-67
2023/12/02 02:23:22;;;;;;;25.13;12.23;;;3.00;64.60;;;;;;5079326;28;20107;-66
2023/12/02 02:25:50;;;;;;;25.42;12.57;;;3.00;64.60;;;;;;5096374;28;20067;-67
2023/12/02 02:28:24;;;;;;;24.33;12.33;;;3.00;64.60;;;;;;5057332;28;20085;-67
2023/12/02 02:30:50;;;;;;;23.10;11.83;;;3.00;64.50;;;;;;5091055;28;20035;-66
2023/12/02 02:33:17;;;;;;;24.37;13.27;;;3.00;64.60;;;;;;5085533;28;20113;-66
2023/12/02 02:35:45;;;;;;;24.77;12.67;;;3.00;64.60;;;;;;5103371;28;20030;-67
2023/12/02 02:38:11;;;;;;;24.37;12.60;;;3.00;64.60;;;;;;5080501;28;20043;-66
2023/12/02 02:40:37;;;;;;;24.63;12.03;;;3.00;64.60;;;;;;5093949;28;20111;-66
2023/12/02 02:43:03;;;;;;;24.33;11.87;;;3.00;64.60;;;;;;5094314;28;20512;-67
2023/12/02 02:45:29;;;;;;;23.30;12.50;;;3.00;64.60;;;;;;5100976;28;20107;-67
2023/12/02 02:47:54;;;;;;;24.00;13.47;;;3.00;64.70;;;;;;5102073;28;20024;-67
2023/12/02 02:50:20;;;;;;;24.03;12.50;;;3.00;64.70;;;;;;5086505;28;20336;-67
2023/12/02 02:52:47;;;;;;;24.23;12.93;;;3.00;64.70;;;;;;5085993;28;20518;-67
2023/12/02 02:55:13;;;;;;;25.93;13.87;;;3.00;64.70;;;;;;5114031;28;20015;-67
2023/12/02 02:57:38;;;;;;;25.30;12.03;;;3.00;64.80;;;;;;5084709;28;20046;-66
2023/12/02 03:00:09;;;;;;;22.23;11.70;;;3.00;64.80;;;;;;5101147;28;20027;-67
2023/12/02 03:02:38;;;;;;;22.47;11.87;;;3.00;64.80;;;;;;5087205;28;20016;-67
2023/12/02 03:05:05;;;;;;;27.07;14.10;;;3.00;64.80;;;;;;5099645;28;20019;-67
2023/12/02 03:07:31;;;;;;;24.30;11.47;;;3.00;64.80;;;;;;5075429;28;20052;-67
2023/12/02 03:09:57;;;;;;;24.17;13.07;;;3.00;64.80;;;;;;5077705;28;20042;-67
2023/12/02 03:12:24;;;;;;;25.63;13.20;;;3.00;64.80;;;;;;5103521;28;20027;-66
2023/12/02 03:14:50;;;;;;;24.23;13.00;;;3.00;64.80;;;;;;5079019;28;20035;-67
2023/12/02 03:17:16;;;;;;;24.07;12.20;;;3.00;64.80;;;;;;5062933;28;20044;-67
2023/12/02 03:19:42;;;;;;;23.53;12.60;;;3.00;64.80;;;;;;5077318;28;20042;-66
2023/12/02 03:22:08;;;;;;;23.27;12.60;;;3.00;64.80;;;;;;5074436;28;20075;-67
2023/12/02 03:24:33;;;;;;;24.03;13.13;;;3.00;64.80;;;;;;5102849;28;20119;-67
2023/12/02 03:26:59;;;;;;;21.80;12.47;;;3.00;64.80;;;;;;5087766;28;20115;-67
2023/12/02 03:29:25;;;;;;;23.43;12.07;;;3.00;64.80;;;;;;5085467;28;20433;-66
2023/12/02 03:31:50;;;;;;;25.30;13.60;;;3.00;64.80;;;;;;5082778;28;20032;-66
2023/12/02 03:34:16;;;;;;;25.60;12.97;;;3.00;64.90;;;;;;5079589;28;20032;-66
2023/12/02 03:36:42;;;;;;;24.17;13.10;;;3.00;64.90;;;;;;5065188;28;20029;-66
2023/12/02 03:39:07;;;;;;;23.73;12.67;;;3.00;64.90;;;;;;5097069;28;20401;-66
2023/12/02 03:41:33;;;;;;;23.33;12.20;;;2.90;64.90;;;;;;5086448;28;20073;-67
2023/12/02 03:43:59;;;;;;;24.20;12.37;;;2.90;64.90;;;;;;5072063;28;20028;-67
2023/12/02 03:46:28;;;;;;;23.33;12.57;;;2.90;64.90;;;;;;5115933;28;20039;-66
2023/12/02 03:48:54;;;;;;;24.40;12.77;;;2.90;64.90;;;;;;5082870;28;20441;-66
2023/12/02 03:51:20;;;;;;;23.93;11.90;;;2.90;64.90;;;;;;5086957;28;20035;-66
2023/12/02 03:53:46;;;;;;;24.50;12.57;;;2.90;64.90;;;;;;5072288;28;20028;-66
2023/12/02 03:56:12;;;;;;;22.57;12.33;;;2.90;64.90;;;;;;5098324;28;20117;-66
2023/12/02 03:58:38;;;;;;;23.63;12.20;;;2.90;65.00;;;;;;5077301;28;20074;-66
2023/12/02 04:01:04;;;;;;;22.93;11.73;;;2.90;65.10;;;;;;5104069;28;20028;-66
2023/12/02 04:03:30;;;;;;;24.37;12.40;;;2.90;65.20;;;;;;5109300;28;20368;-66
2023/12/02 04:05:55;;;;;;;23.03;12.27;;;2.90;65.20;;;;;;5085049;28;20043;-66
2023/12/02 04:08:21;;;;;;;24.57;11.73;;;2.90;65.30;;;;;;5098618;28;20024;-67
2023/12/02 04:10:47;;;;;;;20.27;10.60;;;2.90;65.30;;;;;;5102803;28;20031;-66
2023/12/02 04:13:13;;;;;;;22.97;11.87;;;2.90;65.30;;;;;;5108066;28;20456;-66
2023/12/02 04:15:38;;;;;;;26.17;13.27;;;2.90;65.30;;;;;;5061884;28;20052;-67
2023/12/02 04:18:04;;;;;;;26.30;12.73;;;2.90;65.30;;;;;;5064843;28;20058;-66
2023/12/02 04:20:30;;;;;;;22.93;11.50;;;2.90;65.30;;;;;;5092746;28;20032;-66
2023/12/02 04:22:55;;;;;;;21.63;11.80;;;2.80;65.40;;;;;;5078303;28;20353;-66
2023/12/02 04:25:21;;;;;;;22.47;11.20;;;2.80;65.40;;;;;;5097239;28;20093;-66
2023/12/02 04:27:47;;;;;;;23.87;11.77;;;2.80;65.50;;;;;;5097138;28;20070;-66
2023/12/02 04:30:13;;;;;;;25.60;13.10;;;2.80;65.50;;;;;;5092124;28;20080;-66
2023/12/02 04:32:39;;;;;;;23.43;12.07;;;2.80;65.50;;;;;;5072140;28;20069;-66
2023/12/02 04:35:05;;;;;;;23.70;12.13;;;2.80;65.50;;;;;;5098333;28;20016;-66
2023/12/02 04:37:32;;;;;;;19.67;10.67;;;2.80;65.60;;;;;;5102491;28;20027;-66
2023/12/02 04:39:58;;;;;;;21.70;11.23;;;2.80;65.60;;;;;;5105273;28;20021;-66
2023/12/02 04:42:23;;;;;;;22.03;11.43;;;2.80;65.60;;;;;;5111765;28;20030;-66
2023/12/02 04:44:49;;;;;;;21.77;12.07;;;2.80;65.50;;;;;;5097551;28;20115;-66
2023/12/02 04:47:16;;;;;;;24.47;13.43;;;2.90;65.70;;;;;;5095062;28;20058;-66
2023/12/02 04:49:41;;;;;;;24.00;12.40;;;2.80;65.60;;;;;;5102309;28;20039;-66
2023/12/02 04:52:08;;;;;;;23.63;13.07;;;2.80;65.70;;;;;;5085231;28;20032;-66
2023/12/02 04:54:36;;;;;;;23.33;11.80;;;2.80;65.70;;;;;;5083572;28;20458;-66
2023/12/02 04:57:02;;;;;;;22.67;10.93;;;2.80;65.70;;;;;;5098854;28;20031;-66
2023/12/02 04:59:28;;;;;;;23.23;12.23;;;2.80;65.80;;;;;;5094131;28;20078;-66
2023/12/02 05:01:54;;;;;;;22.67;12.97;;;2.80;65.70;;;;;;5078970;28;20028;-67
2023/12/02 05:04:20;;;;;;;25.37;12.33;;;2.80;65.70;;;;;;5097628;28;20027;-66
2023/12/02 05:06:46;;;;;;;23.50;12.40;;;2.80;65.80;;;;;;5086764;28;20031;-66
2023/12/02 05:09:12;;;;;;;22.10;12.40;;;2.80;65.70;;;;;;5108676;28;20068;-66
2023/12/02 05:11:38;;;;;;;24.27;11.90;;;2.80;65.80;;;;;;5098335;28;20063;-66
2023/12/02 05:14:03;;;;;;;21.37;11.20;;;2.80;65.80;;;;;;5094107;28;20060;-66
2023/12/02 05:16:29;;;;;;;23.03;11.37;;;2.80;65.90;;;;;;5077239;28;20056;-66
2023/12/02 05:18:55;;;;;;;24.17;13.00;;;2.70;65.90;;;;;;5079272;28;20060;-66
2023/12/02 05:21:21;;;;;;;23.17;12.07;;;2.70;66.00;;;;;;5093266;28;20023;-66
2023/12/02 05:23:46;;;;;;;24.23;12.50;;;2.70;66.10;;;;;;5099652;28;20790;-66
2023/12/02 05:26:12;;;;;;;22.10;10.50;;;2.70;66.10;;;;;;5103651;28;20069;-66
2023/12/02 05:28:38;;;;;;;21.73;11.67;;;2.70;66.10;;;;;;5098707;28;20116;-66
2023/12/02 05:31:05;;;;;;;22.00;11.33;;;2.70;66.10;;;;;;5075473;28;20023;-67
2023/12/02 05:33:31;;;;;;;21.63;11.70;;;2.70;66.10;;;;;;5083919;28;20398;-67
2023/12/02 05:35:57;;;;;;;20.80;10.90;;;2.70;66.10;;;;;;5100120;28;20031;-66
2023/12/02 05:38:23;;;;;;;25.10;12.50;;;2.70;66.10;;;;;;5081950;28;20034;-66
2023/12/02 05:40:49;;;;;;;24.47;13.63;;;2.70;66.10;;;;;;5074934;28;20454;-66
2023/12/02 05:43:14;;;;;;;23.90;12.03;;;2.70;66.10;;;;;;5109851;28;20047;-66
2023/12/02 05:45:40;;;;;;;22.33;12.20;;;2.70;66.10;;;;;;5094701;28;20076;-66
2023/12/02 05:48:06;;;;;;;22.50;12.33;;;2.70;66.20;;;;;;5076898;28;20028;-66
2023/12/02 05:50:32;;;;;;;24.07;12.00;;;2.70;66.20;;;;;;5099589;28;20039;-66
2023/12/02 05:52:58;;;;;;;26.60;14.07;;;2.70;66.20;;;;;;5082120;28;20028;-66
2023/12/02 05:55:25;;;;;;;27.77;14.17;;;2.70;66.20;;;;;;5100748;28;20020;-66
2023/12/02 05:57:52;;;;;;;22.33;12.10;;;2.70;66.20;;;;;;5060907;28;20355;-66
2023/12/02 06:00:19;;;;;;;25.67;12.87;;;2.70;66.30;;;;;;5076303;28;20331;-67
2023/12/02 06:02:44;;;;;;;23.63;12.03;;;2.70;66.20;;;;;;5065067;28;20050;-66
2023/12/02 06:05:10;;;;;;;24.90;13.03;;;2.70;66.20;;;;;;5094800;28;20333;-66
2023/12/02 06:07:36;;;;;;;25.40;12.40;;;2.70;66.20;;;;;;5089399;28;20024;-67
2023/12/02 06:10:02;;;;;;;23.67;12.70;;;2.70;66.20;;;;;;5077955;28;20020;-66
2023/12/02 06:12:28;;;;;;;24.03;12.70;;;2.70;66.20;;;;;;5097502;28;20070;-66
2023/12/02 06:14:54;;;;;;;25.17;13.50;;;2.80;66.30;;;;;;5095376;28;20028;-66
2023/12/02 06:17:19;;;;;;;25.87;13.43;;;2.80;66.30;;;;;;5097809;28;20048;-67
2023/12/02 06:19:45;;;;;;;25.13;13.30;;;2.70;66.30;;;;;;5079874;28;20032;-66
2023/12/02 06:22:11;;;;;;;23.90;13.37;;;2.70;66.20;;;;;;5083219;28;20027;-67
2023/12/02 06:24:37;;;;;;;25.97;12.87;;;2.70;66.20;;;;;;5095594;28;20012;-67
2023/12/02 06:27:03;;;;;;;25.47;12.93;;;2.70;66.30;;;;;;5075823;28;20101;-66
2023/12/02 06:29:28;;;;;;;24.27;12.07;;;2.70;66.30;;;;;;5072593;28;20024;-66
2023/12/02 06:31:54;;;;;;;24.33;13.47;;;2.70;66.30;;;;;;5074894;28;20161;-67
2023/12/02 06:34:20;;;;;;;24.43;13.47;;;2.70;66.40;;;;;;5095035;28;20367;-66
2023/12/02 06:36:46;;;;;;;23.23;11.73;;;2.70;66.40;;;;;;5093556;28;20527;-66
2023/12/02 06:39:15;;;;;;;23.43;12.00;;;2.70;66.40;;;;;;5081938;28;20046;-66
2023/12/02 06:41:41;;;;;;;25.90;13.27;;;2.70;66.40;;;;;;5086140;28;20042;-67
2023/12/02 06:44:10;;;;;;;24.57;12.93;;;2.70;66.50;;;;;;5101033;28;20023;-67
2023/12/02 06:46:36;;;;;;;24.73;12.97;;;2.70;66.60;;;;;;5105615;28;20028;-67
2023/12/02 06:49:02;;;;;;;25.10;13.37;;;2.70;66.60;;;;;;5085850;28;20089;-68
2023/12/02 06:51:30;;;;;;;22.77;11.73;;;2.70;66.70;;;;;;5082796;28;20027;-66
2023/12/02 06:53:57;;;;;;;24.17;12.23;;;2.70;66.80;;;;;;5109227;28;20053;-66
2023/12/02 06:56:25;;;;;;;24.50;13.43;;;2.70;66.80;;;;;;5096675;28;20035;-66
2023/12/02 06:58:52;;;;;;;23.93;12.20;;;2.70;66.90;;;;;;5089329;28;20049;-67
2023/12/02 07:01:27;;;;;;;25.00;12.43;;;2.70;66.90;;;;;;5088770;28;20102;-67
2023/12/02 07:03:57;;;;;;;24.50;12.87;;;2.70;66.90;;;;;;5108908;28;20429;-67
2023/12/02 07:06:24;;;;;;;23.27;11.93;;;2.70;66.80;;;;;;5101238;28;20016;-67
2023/12/02 07:08:51;;;;;;;24.47;12.87;;;2.70;66.90;;;;;;5094430;28;20093;-70
2023/12/02 07:11:17;;;;;;;26.23;13.70;;;2.70;66.90;;;;;;5103638;28;20101;-69
2023/12/02 07:13:43;;;;;;;25.97;13.20;;;2.80;66.90;;;;;;5092470;28;20032;-68
2023/12/02 07:16:10;;;;;;;24.70;13.40;;;2.70;66.90;;;;;;5074260;28;20044;-69
2023/12/02 07:18:36;;;;;;;26.30;13.37;;;2.80;66.90;;;;;;5074486;28;20097;-68
2023/12/02 07:21:05;;;;;;;24.80;12.93;;;2.80;66.90;;;;;;5091925;28;20023;-68
2023/12/02 07:23:31;;;;;;;25.33;13.13;;;2.80;66.90;;;;;;5077031;28;20430;-69
2023/12/02 07:26:00;;;;;;;24.90;12.63;;;2.70;66.90;;;;;;5087776;28;20024;-69
2023/12/02 07:28:26;;;;;;;24.83;13.07;;;2.80;67.00;;;;;;5057828;28;20357;-69
2023/12/02 07:30:52;;;;;;;26.20;13.53;;;2.80;67.00;;;;;;5094179;28;20032;-69
2023/12/02 07:33:21;;;;;;;25.07;12.90;;;2.80;67.00;;;;;;5104963;28;20027;-69
2023/12/02 07:35:47;;;;;;;24.03;12.80;;;2.80;67.00;;;;;;5065820;28;20035;-69
2023/12/02 07:38:13;;;;;;;25.40;12.60;;;2.80;67.10;;;;;;5108231;28;20051;-69
2023/12/02 07:40:38;;;;;;;27.13;14.33;;;2.80;67.10;;;;;;5096569;28;20066;-69
2023/12/02 07:43:05;;;;;;;23.30;12.23;;;2.80;67.10;;;;;;5114504;28;20030;-68
2023/12/02 07:45:30;;;;;;;24.97;14.33;;;2.90;67.10;;;;;;5114671;28;20020;-69
2023/12/02 07:47:57;;;;;;;23.80;12.87;;;2.90;67.10;;;;;;5097021;28;20088;-69
2023/12/02 07:50:23;;;;;;;26.23;12.67;;;2.90;67.00;;;;;;5101137;28;20050;-69
2023/12/02 07:52:49;;;;;;;24.77;13.27;;;2.90;67.00;;;;;;5095656;28;20512;-69
2023/12/02 07:55:14;;;;;;;23.30;12.97;;;2.90;67.00;;;;;;5091019;28;20363;-69
2023/12/02 07:57:40;;;;;;;23.93;12.13;;;2.90;67.00;;;;;;5076398;28;20047;-69
2023/12/02 08:00:07;;;;;;;22.93;12.73;;;2.90;67.00;;;;;;5094493;28;20028;-69
2023/12/02 08:02:39;;;;;;;24.07;13.50;;;2.90;67.00;;;;;;5077284;28;20107;-69
2023/12/02 08:05:05;;;;;;;24.00;13.53;;;2.90;67.00;;;;;;5082362;28;20392;-69
2023/12/02 08:07:31;;;;;;;23.43;11.97;;;2.90;66.90;;;;;;5091990;28;20037;-68
2023/12/02 08:09:57;;;;;;;25.53;12.93;;;3.00;66.90;;;;;;5059967;28;20118;-70
2023/12/02 08:12:23;;;;;;;25.77;12.00;;;3.00;66.70;;;;;;5074790;28;20123;-69
2023/12/02 08:14:50;;;;;;;24.77;13.20;;;3.10;66.70;;;;;;5110393;28;20198;-69
2023/12/02 08:17:16;;;;;;;21.47;12.07;;;3.20;66.80;;;;;;5093449;28;20112;-70
2023/12/02 08:19:41;;;;;;;25.17;13.33;;;3.20;66.70;;;;;;5095462;28;20464;-71
2023/12/02 08:22:07;;;;;;;25.60;13.20;;;3.20;66.60;;;;;;5080601;28;20368;-69
2023/12/02 08:24:35;;;;;;;24.47;13.27;;;3.30;66.60;;;;;;5095245;28;20163;-69
2023/12/02 08:27:01;;;;;;;23.23;12.17;;;3.30;66.50;;;;;;5088464;28;20346;-69
2023/12/02 08:29:27;;;;;;;23.33;12.60;;;3.30;66.50;;;;;;5078772;28;20036;-69
2023/12/02 08:31:52;;;;;;;23.83;12.93;;;3.30;66.50;;;;;;5084159;28;20084;-69
2023/12/02 08:34:18;;;;;;;24.70;13.57;;;3.30;66.50;;;;;;5096582;28;20020;-69
2023/12/02 08:36:44;;;;;;;22.93;12.20;;;3.30;66.50;;;;;;5101772;28;20463;-67
2023/12/02 08:39:10;;;;;;;24.27;13.33;;;3.30;66.40;;;;;;5092461;28;20032;-67
2023/12/02 08:41:36;;;;;;;24.10;12.80;;;3.40;66.40;;;;;;5078218;28;20020;-67
2023/12/02 08:44:02;;;;;;;27.00;13.53;;;3.40;66.20;;;;;;5094036;28;20020;-67
2023/12/02 08:46:28;;;;;;;26.00;13.97;;;3.40;66.80;;;;;;5097825;28;20031;-67
2023/12/02 08:48:54;;;;;;;22.93;13.33;;;3.50;66.00;;;;;;5076472;28;20023;-67
2023/12/02 08:51:21;;;;;;;27.23;14.17;;;3.60;65.80;;;;;;5086081;28;20035;-67
2023/12/02 08:53:51;;;;;;;26.07;13.97;;;3.70;65.50;;;;;;5073944;28;20039;-67
2023/12/02 08:56:17;;;;;;;25.50;14.17;;;3.80;65.40;;;;;;5116780;28;20027;-67
2023/12/02 08:58:43;;;;;;;24.63;13.57;;;3.80;65.30;;;;;;5107660;28;20043;-67
2023/12/02 09:01:08;;;;;;;24.63;13.87;;;3.90;65.30;;;;;;5083830;28;20019;-67
2023/12/02 09:03:34;;;;;;;24.87;13.57;;;4.00;65.10;;;;;;5069379;28;20433;-67
2023/12/02 09:06:00;;;;;;;23.33;13.23;;;4.00;64.90;;;;;;5082581;28;20044;-67
2023/12/02 09:08:25;;;;;;;25.40;14.17;;;4.10;64.90;;;;;;5104240;28;20024;-67
2023/12/02 09:10:52;;;;;;;27.67;14.47;;;4.10;64.80;;;;;;5100757;28;20449;-68
2023/12/02 09:13:32;;;;;;;27.90;14.97;;;4.20;64.70;;;;;;5103566;28;20059;-67
2023/12/02 09:16:00;;;;;;;26.83;15.43;;;4.20;64.50;;;;;;5094494;28;20040;-67
2023/12/02 09:18:33;;;;;;;31.27;16.03;;;4.20;64.40;;;;;;5111470;28;20430;-67
2023/12/02 09:20:59;;;;;;;27.27;14.77;;;4.20;64.30;;;;;;5116065;28;20020;-67
2023/12/02 09:23:25;;;;;;;26.77;14.53;;;4.30;64.40;;;;;;5096514;28;20408;-67
2023/12/02 09:25:51;;;;;;;27.90;15.23;;;4.30;64.30;;;;;;5087602;28;20020;-67
2023/12/02 09:28:20;;;;;;;28.10;15.17;;;4.30;64.40;;;;;;5109133;28;20032;-68
2023/12/02 09:30:51;;;;;;;25.67;14.47;;;4.30;64.30;;;;;;5074875;28;20355;-68
2023/12/02 09:33:17;;;;;;;26.30;15.02;;;4.20;64.30;;;;;;5100777;28;20441;-68
2023/12/02 09:35:43;;;;;;;25.33;14.07;;;4.30;64.40;;;;;;5077661;28;20028;-68
2023/12/02 09:38:09;;;;;;;27.53;15.23;;;4.30;64.30;;;;;;5074705;28;20115;-68
2023/12/02 09:40:54;;;;;;;26.07;14.67;;;4.40;64.30;;;;;;5099319;28;20353;-68
2023/12/02 09:43:22;;;;;;;26.67;14.37;;;4.40;64.30;;;;;;5101317;28;20015;-68
2023/12/02 09:46:06;;;;;;;26.73;15.07;;;4.50;64.30;;;;;;5069419;28;20164;-68
2023/12/02 09:48:37;;;;;;;27.83;14.90;;;4.50;64.20;;;;;;5074546;28;20032;-67
2023/12/02 09:51:11;;;;;;;28.88;15.73;;;4.50;64.10;;;;;;5084894;28;20028;-68
2023/12/02 09:53:58;;;;;;;27.10;15.73;;;4.60;64.10;;;;;;5087218;28;20099;-68
2023/12/02 09:56:29;;;;;;;29.80;15.13;;;4.70;63.90;;;;;;5101997;28;20023;-68
2023/12/02 09:59:22;;;;;;;29.33;15.77;;;4.90;63.60;;;;;;5092308;28;20028;-67
2023/12/02 10:02:03;;;;;;;33.87;17.93;;;5.20;63.30;;;;;;5052382;28;20043;-67
2023/12/02 10:04:51;;;;;;;29.23;15.00;;;5.30;62.70;;;;;;5101976;28;20021;-67
2023/12/02 10:07:31;;;;;;;26.07;14.87;;;5.50;62.60;;;;;;5099434;28;20099;-67
2023/12/02 10:10:06;;;;;;;31.27;16.23;;;5.70;62.30;;;;;;5095611;28;20020;-68
2023/12/02 10:12:42;;;;;;;32.30;15.83;;;5.80;62.00;;;;;;5097919;28;20151;-68
2023/12/02 10:15:11;;;;;;;29.67;15.87;;;5.90;61.70;;;;;;5100777;28;20054;-68
2023/12/02 10:17:47;;;;;;;31.03;17.07;;;6.10;61.30;;;;;;5082285;28;20071;-69
2023/12/02 10:20:15;;;;;;;31.83;17.63;;;6.10;61.10;;;;;;5080421;28;20367;-68
2023/12/02 10:22:45;;;;;;;28.47;16.63;;;6.30;61.10;;;;;;5066746;28;20024;-68
2023/12/02 10:25:36;;;;;;;28.13;15.13;;;6.20;60.80;;;;;;5099377;28;20444;-68
2023/12/02 10:28:17;;;;;;;29.50;16.63;;;6.10;60.90;;;;;;5079748;28;20043;-68
2023/12/02 10:30:50;;;;;;;28.92;15.15;;;6.00;61.10;;;;;;5081484;28;20344;-68
2023/12/02 10:33:54;;;;;;;28.43;14.60;;;5.90;61.30;;;;;;5078192;28;20028;-68
2023/12/02 10:36:21;;;;;;;27.37;15.07;;;5.80;61.40;;;;;;5019952;28;20045;-68
2023/12/02 10:39:10;;;;;;;35.40;18.23;;;5.70;61.60;;;;;;5090318;28;20358;-68
2023/12/02 10:41:39;;;;;;;30.37;16.67;;;5.60;61.60;;;;;;5080608;28;20028;-68
2023/12/02 10:44:07;;;;;;;31.70;17.40;;;5.60;61.80;;;;;;5088782;28;20039;-68
2023/12/02 10:46:34;;;;;;;33.90;17.80;;;5.50;62.00;;;;;;5084733;28;20035;-68
2023/12/02 10:49:01;;;;;;;36.63;19.60;;;5.50;62.10;;;;;;5093843;28;20032;-67
2023/12/02 10:51:28;;;;;;;36.70;18.37;;;5.50;62.10;;;;;;5105525;28;20329;-68
2023/12/02 10:53:59;;;;;;;37.27;20.17;;;5.50;62.10;;;;;;5101360;28;20032;-68
2023/12/02 10:56:27;;;;;;;;;;;5.60;62.20;;;;;;5094905;28;20039;-68
2023/12/02 10:58:53;;;;;;;29.80;15.80;;;5.60;62.20;;;;;;5078759;28;19912;-69
2023/12/02 11:01:34;;;;;;;27.97;14.87;;;5.50;62.10;;;;;;5088401;28;20016;-69
2023/12/02 11:04:23;;;;;;;28.17;14.57;;;5.50;62.20;;;;;;5095414;28;20043;-69
2023/12/02 11:06:52;;;;;;;27.63;14.67;;;5.40;62.20;;;;;;5091278;28;20028;-68
2023/12/02 11:09:18;;;;;;;31.87;15.90;;;5.40;62.40;;;;;;5099228;28;20165;-68
2023/12/02 11:11:56;;;;;;;28.33;15.73;;;5.40;62.60;;;;;;5083486;28;20052;-69
2023/12/02 11:14:24;;;;;;;31.63;17.10;;;5.40;62.60;;;;;;5095440;28;20036;-68
2023/12/02 11:17:14;;;;;;;28.73;15.93;;;5.30;62.60;;;;;;5076873;28;20064;-69
2023/12/02 11:19:52;;;;;;;32.57;17.47;;;5.30;62.70;;;;;;5075426;28;20088;-69
2023/12/02 11:22:34;;;;;;;28.60;15.90;;;5.30;62.80;;;;;;5093282;28;20025;-69
2023/12/02 11:25:06;;;;;;;30.15;15.73;;;5.30;62.90;;;;;;5073596;28;20024;-69
2023/12/02 11:27:37;;;;;;;;;;;5.30;63.00;;;;;;5093855;28;20036;-68
2023/12/02 11:30:33;;;;;;;28.38;14.15;;;5.20;63.00;;;;;;5072824;28;19908;-68
2023/12/02 11:33:12;;;;;;;27.13;14.67;;;5.20;63.00;;;;;;5082082;28;20032;-70
2023/12/02 11:36:07;;;;;;;27.57;14.20;;;5.10;63.10;;;;;;5097851;28;20077;-69
2023/12/02 11:38:33;;;;;;;27.53;14.93;;;5.10;63.20;;;;;;5060171;28;20505;-69
2023/12/02 11:41:27;;;;;;;29.77;15.93;;;5.10;63.30;;;;;;5081557;28;20031;-69
2023/12/02 11:44:20;;;;;;;28.10;14.97;;;5.20;63.40;;;;;;5074347;28;20414;-69
2023/12/02 11:47:09;;;;;;;25.17;13.43;;;5.10;63.30;;;;;;5100235;28;20028;-70
2023/12/02 11:49:35;;;;;;;32.40;17.07;;;5.20;63.40;;;;;;5096222;28;20039;-70
2023/12/02 11:52:31;;;;;;;30.93;15.50;;;5.20;63.50;;;;;;5081561;28;20032;-70
2023/12/02 11:55:20;;;;;;;28.80;15.37;;;5.20;63.50;;;;;;5078488;28;20087;-69
2023/12/02 11:58:03;;;;;;;29.37;14.40;;;5.20;63.50;;;;;;5058491;28;20507;-70
2023/12/02 12:00:34;;;;;;;26.13;14.23;;;5.10;63.60;;;;;;5095040;28;20039;-70
2023/12/02 12:03:17;;;;;;;28.63;15.23;;;5.10;63.80;;;;;;5097577;28;20083;-69
2023/12/02 12:06:12;;;;;;;29.70;16.00;;;5.10;63.80;;;;;;5074561;28;20035;-68
2023/12/02 12:08:56;;;;;;;28.63;15.47;;;5.10;63.80;;;;;;5076369;28;20024;-68
2023/12/02 12:11:22;;;;;;;29.00;15.10;;;5.10;64.00;;;;;;5111236;28;20023;-69
2023/12/02 12:13:49;;;;;;;32.10;16.03;;;5.10;64.00;;;;;;5080562;28;20050;-70
2023/12/02 12:16:15;;;;;;;30.43;14.83;;;5.10;64.10;;;;;;5102628;28;20083;-67
2023/12/02 12:18:42;;;;;;;31.20;16.87;;;5.10;64.20;;;;;;5057301;28;20059;-68
2023/12/02 12:21:09;;;;;;;28.90;14.67;;;5.10;64.20;;;;;;5101420;28;20020;-69
2023/12/02 12:23:35;;;;;;;32.20;15.93;;;5.10;64.20;;;;;;5079885;28;20073;-69
2023/12/02 12:26:02;;;;;;;34.40;18.90;;;5.10;64.30;;;;;;5068965;28;20023;-69
2023/12/02 12:28:27;;;;;;;32.47;17.90;;;5.10;64.40;;;;;;5101086;28;20505;-68
2023/12/02 12:30:53;;;;;;;34.63;18.50;;;5.20;64.60;;;;;;5062873;28;20025;-67
2023/12/02 12:33:22;;;;;;;36.13;18.37;;;5.10;64.60;;;;;;5079894;28;20032;-68
2023/12/02 12:35:48;;;;;;;32.80;18.67;;;5.10;64.60;;;;;;5076193;28;20060;-69
2023/12/02 12:38:15;;;;;;;33.70;17.77;;;5.10;64.70;;;;;;5099247;28;20100;-69
2023/12/02 12:40:42;;;;;;;30.53;16.53;;;5.20;64.80;;;;;;5100645;28;20028;-69
2023/12/02 12:43:10;;;;;;;30.43;16.97;;;5.20;64.80;;;;;;5096235;28;20028;-68
2023/12/02 12:45:39;;;;;;;31.20;17.47;;;5.10;64.80;;;;;;5101696;28;20020;-68